Maury, North Carolina
Current Conditions -  °F | °C
As of 8:58 AM on Monday 24 Nov 2014 (Local Time) from KISO Reporting Station
Overcast Overcast  
Wind Chill: 68°   Ceiling: 800
Heat Index: 68°   Visibility: 10mi
Dew Point: 66°   Wind: 8mph
Humidity: 94%   Direction: 210°SSW
Pressure: 29.89"   Gusts: NA
Location:  35.48°N, 77.59°W
Report Text: KISO 241358Z COR 21007KT 10SM OVC008 20/19 A2989 RMK AO2
Loading
Personal Weather Stations






























Interactive Weather Map New forecast layout! Learn more

10-Day Weather Forecast

Advertisements
Track Severe Weather on mobile